Time;durP1;ratioP1;P1;durP2;ratioP2;P2;SDS_P1;SDS_P2;PMS_P1;PMS_P2;Temp;Humidity;BMP_temperature;BMP_pressure;BME280_temperature;BME280_humidity;BME280_pressure;Samples;Min_cycle;Max_cycle;Signal;HPM_P1;HPM_P2
2023/01/01 00:01:19;;;;;;;8.63;7.72;;;;;;;13.84;66.18;100305.88;6082463;23;20464;-70
2023/01/01 00:03:49;;;;;;;10.10;8.02;;;;;;;12.52;66.60;100091.28;6052532;23;20467;-70
2023/01/01 00:06:17;;;;;;;9.20;7.93;;;;;;;14.22;66.47;100375.31;6076322;23;20022;-70
2023/01/01 00:08:43;;;;;;;10.73;7.53;;;;;;;13.64;65.86;100275.69;6055374;23;20051;-70
2023/01/01 00:11:10;;;;;;;12.00;8.00;;;;;;;14.20;66.39;100364.88;6031815;23;20028;-70
2023/01/01 00:13:49;;;;;;;8.65;7.95;;;;;;;14.19;66.10;100365.81;6055238;23;20030;-69
2023/01/01 00:16:15;;;;;;;9.02;7.25;;;;;;;14.17;65.69;100351.88;6064934;23;20097;-71
2023/01/01 00:18:42;;;;;;;8.15;7.20;;;;;;;14.16;66.09;100344.94;6056222;23;20080;-74
2023/01/01 00:21:12;;;;;;;10.73;7.38;;;;;;;14.19;65.66;100347.31;6082567;23;20099;-69
2023/01/01 00:23:39;;;;;;;11.65;7.72;;;;;;;13.96;65.49;100320.81;6052496;23;20035;-70
2023/01/01 00:26:14;;;;;;;7.85;7.15;;;;;;;14.15;64.47;100336.19;6060826;23;20034;-70
2023/01/01 00:28:41;;;;;;;7.40;6.82;;;;;;;14.17;64.39;100336.03;6056641;23;20041;-69
2023/01/01 00:31:18;;;;;;;8.32;7.63;;;;;;;13.77;64.33;100265.94;6105472;23;20034;-70
2023/01/01 00:33:52;;;;;;;9.20;6.32;;;;;;;13.96;64.61;100289.16;6062584;23;20119;-71
2023/01/01 00:36:19;;;;;;;9.43;6.13;;;;;;;13.94;64.11;100322.72;6060516;23;20010;-71
2023/01/01 00:38:47;;;;;;;6.40;5.93;;;;;;;13.66;63.94;100283.47;6030575;23;20023;-71
2023/01/01 00:41:16;;;;;;;6.10;5.70;;;;;;;13.68;64.69;100289.50;6084277;23;20099;-70
2023/01/01 00:43:43;;;;;;;6.47;6.05;;;;;;;13.74;64.13;100312.78;6051177;23;20137;-71
2023/01/01 00:46:10;;;;;;;14.80;6.00;;;;;;;13.61;64.70;100288.22;6057363;23;20029;-71
2023/01/01 00:48:37;;;;;;;6.18;5.72;;;;;;;13.63;64.13;100312.69;6083546;23;20101;-71
2023/01/01 00:51:03;;;;;;;5.60;5.25;;;;;;;13.73;63.38;100304.03;6050932;23;20194;-69
2023/01/01 00:53:30;;;;;;;5.30;5.00;;;;;;;13.50;63.87;100281.09;6079215;23;20045;-70
2023/01/01 00:55:56;;;;;;;5.45;5.15;;;;;;;13.60;64.13;100315.56;6050370;23;20041;-70
2023/01/01 00:58:24;;;;;;;8.90;5.43;;;;;;;13.57;64.39;100320.09;6050615;23;20407;-70
2023/01/01 01:00:52;;;;;;;5.97;5.55;;;;;;;13.53;64.62;100302.81;6059718;23;20018;-73
2023/01/01 01:03:27;;;;;;;4.97;4.78;;;;;;;12.20;63.60;100067.19;6081648;23;20058;-71
2023/01/01 01:06:01;;;;;;;5.18;4.88;;;;;;;13.62;63.64;100313.66;6047270;23;20417;-72
2023/01/01 01:08:32;;;;;;;5.75;5.35;;;;;;;13.61;64.43;100309.31;6046799;23;20022;-71
2023/01/01 01:11:07;;;;;;;6.38;5.18;;;;;;;13.16;63.98;100263.19;6077476;23;20025;-73
2023/01/01 01:13:35;;;;;;;6.43;5.82;;;;;;;13.54;64.34;100301.84;6053956;23;20219;-72
2023/01/01 01:16:17;;;;;;;5.95;5.45;;;;;;;13.52;62.93;100290.56;6055280;23;20565;-71
2023/01/01 01:18:44;;;;;;;5.68;5.13;;;;;;;13.59;63.32;100290.13;6059340;23;20034;-71
2023/01/01 01:21:15;;;;;;;5.10;4.88;;;;;;;13.38;62.13;100259.09;6065874;23;20230;-71
2023/01/01 01:23:42;;;;;;;7.65;5.93;;;;;;;13.67;61.35;100271.97;6083722;23;20443;-70
2023/01/01 01:26:21;;;;;;;5.38;5.07;;;;;;;13.66;61.62;100260.59;6052734;23;20018;-72
2023/01/01 01:28:49;;;;;;;5.18;4.93;;;;;;;13.65;61.44;100253.66;6055226;23;20026;-71
2023/01/01 01:31:17;;;;;;;5.22;4.93;;;;;;;13.10;61.04;100162.69;6074695;23;20118;-71
2023/01/01 01:33:47;;;;;;;5.10;4.80;;;;;;;13.36;61.11;100222.28;6081573;23;20025;-70
2023/01/01 01:36:15;;;;;;;10.45;5.10;;;;;;;13.62;61.00;100263.56;6048242;23;20363;-69
2023/01/01 01:38:42;;;;;;;5.57;5.28;;;;;;;13.55;62.18;100277.19;6057816;23;20038;-70
2023/01/01 01:41:12;;;;;;;5.57;5.18;;;;;;;13.21;62.18;100254.13;6051193;23;20472;-71
2023/01/01 01:43:56;;;;;;;5.68;5.28;;;;;;;13.39;63.52;100304.72;6054182;23;20202;-70
2023/01/01 01:46:37;;;;;;;5.60;5.20;;;;;;;12.94;64.09;100274.38;6047898;23;20015;-71
2023/01/01 01:49:16;;;;;;;5.75;5.28;;;;;;;13.28;64.41;100331.81;6053031;23;20047;-70
2023/01/01 01:51:44;;;;;;;5.80;5.43;;;;;;;13.18;64.91;100352.69;6075711;23;20026;-72
2023/01/01 01:54:15;;;;;;;8.20;6.65;;;;;;;13.15;65.71;100366.91;6049922;23;20037;-71
2023/01/01 01:56:47;;;;;;;5.57;5.28;;;;;;;13.08;65.67;100370.06;6050642;23;20193;-73
2023/01/01 01:59:17;;;;;;;5.63;5.32;;;;;;;13.03;66.48;100380.94;6070764;23;20274;-70
2023/01/01 02:01:44;;;;;;;9.65;5.28;;;;;;;12.89;65.83;100355.50;6079529;23;20037;-72
2023/01/01 02:04:11;;;;;;;5.47;5.18;;;;;;;12.40;66.01;100278.97;6052271;23;20027;-70
2023/01/01 02:06:38;;;;;;;5.43;5.13;;;;;;;12.40;66.05;100289.50;6032348;23;20462;-71
2023/01/01 02:09:07;;;;;;;5.32;5.03;;;;;;;12.53;66.11;100306.16;6053124;23;20043;-70
2023/01/01 02:11:33;;;;;;;7.32;5.35;;;;;;;12.97;66.12;100363.75;6056366;23;20029;-70
2023/01/01 02:14:01;;;;;;;5.45;5.15;;;;;;;12.65;65.76;100323.78;6052451;23;20041;-69
2023/01/01 02:16:41;;;;;;;5.07;4.82;;;;;;;12.99;65.11;100363.63;6073719;23;20026;-74
2023/01/01 02:19:08;;;;;;;5.00;4.80;;;;;;;13.00;65.07;100361.84;6046662;23;20030;-73
2023/01/01 02:21:49;;;;;;;5.20;4.82;;;;;;;13.04;64.28;100353.63;6075486;23;20032;-74
2023/01/01 02:24:28;;;;;;;5.22;4.93;;;;;;;13.10;63.79;100337.38;6053520;23;20093;-73
2023/01/01 02:27:09;;;;;;;5.18;4.82;;;;;;;12.77;63.88;100291.34;6050184;23;20315;-75
2023/01/01 02:29:47;;;;;;;5.10;4.90;;;;;;;13.14;63.76;100338.03;6073927;23;20436;-74
2023/01/01 02:32:29;;;;;;;7.85;5.00;;;;;;;13.20;63.35;100318.31;6050955;23;20071;-73
2023/01/01 02:37:55;;;;;;;5.20;4.90;;;;;;;13.22;62.33;100319.91;6053149;23;20036;-71
2023/01/01 02:40:23;;;;;;;5.03;4.82;;;;;;;13.26;61.94;100310.81;6075535;23;20026;-70
2023/01/01 02:42:52;;;;;;;5.32;4.93;;;;;;;13.29;62.17;100322.94;6051443;23;20046;-70
2023/01/01 02:45:19;;;;;;;5.55;5.05;;;;;;;13.11;62.33;100291.66;6059753;23;20468;-71
2023/01/01 02:47:45;;;;;;;5.20;4.90;;;;;;;12.91;62.50;100257.94;6082889;23;20025;-70
2023/01/01 02:50:22;;;;;;;5.03;4.82;;;;;;;13.02;62.52;100281.75;6053498;23;20014;-70
2023/01/01 02:53:07;;;;;;;5.20;4.90;;;;;;;13.29;62.89;100320.31;6078328;23;20066;-70
2023/01/01 02:55:55;;;;;;;5.20;4.90;;;;;;;13.30;62.59;100304.41;6044233;23;20096;-69
2023/01/01 03:01:33;;;;;;;5.15;4.90;;;;;;;13.08;62.64;100291.03;6079404;23;20057;-71
2023/01/01 03:04:21;;;;;;;5.18;4.85;;;;;;;12.95;62.14;100252.38;6075641;23;20099;-70
2023/01/01 03:06:54;;;;;;;5.00;4.80;;;;;;;12.47;62.61;100201.28;6051635;23;20010;-69
2023/01/01 03:09:57;;;;;;;5.10;4.80;;;;;;;13.23;63.29;100331.28;6077056;23;21204;-70
2023/01/01 03:12:42;;;;;;;5.00;4.70;;;;;;;12.51;63.05;100218.56;6048613;23;20021;-70
2023/01/01 03:15:22;;;;;;;5.22;4.93;;;;;;;13.17;62.79;100317.59;6052124;23;20026;-70
2023/01/01 03:18:01;;;;;;;5.05;4.85;;;;;;;13.16;63.51;100310.63;6052093;23;20369;-70
2023/01/01 03:20:32;;;;;;;5.30;5.00;;;;;;;13.18;63.42;100342.97;6047897;23;20297;-70
2023/01/01 03:23:05;;;;;;;5.57;5.20;;;;;;;13.23;63.15;100355.84;6044937;23;20026;-69
2023/01/01 03:25:39;;;;;;;10.93;5.03;;;;;;;13.22;63.39;100359.41;6071442;23;20028;-69
2023/01/01 03:28:11;;;;;;;5.50;5.20;;;;;;;13.23;63.53;100373.44;6049964;23;20429;-70
2023/01/01 03:30:39;;;;;;;6.10;5.07;;;;;;;13.23;63.00;100383.97;6053280;23;20034;-70
2023/01/01 03:33:11;;;;;;;6.05;5.55;;;;;;;13.22;63.53;100391.03;6025912;23;20440;-69
2023/01/01 03:35:47;;;;;;;5.60;4.93;;;;;;;13.21;64.02;100399.03;6075077;23;20047;-71
2023/01/01 03:38:20;;;;;;;6.13;5.72;;;;;;;12.53;64.25;100295.63;6050462;23;20414;-70
2023/01/01 03:40:50;;;;;;;5.00;4.80;;;;;;;13.05;64.63;100386.94;6036401;23;20034;-70
2023/01/01 03:43:27;;;;;;;5.60;5.10;;;;;;;13.08;65.32;100407.78;6024114;23;20029;-69
2023/01/01 03:45:55;;;;;;;4.97;4.75;;;;;;;12.92;65.28;100375.53;6042798;23;20125;-70
2023/01/01 03:48:22;;;;;;;5.18;4.80;;;;;;;13.16;64.84;100425.72;6009093;23;20015;-71
2023/01/01 03:51:04;;;;;;;5.00;4.80;;;;;;;13.09;64.47;100404.22;6027409;23;20038;-69
2023/01/01 03:53:38;;;;;;;5.20;4.90;;;;;;;11.98;64.75;100232.53;6024717;23;20015;-70
2023/01/01 03:56:13;;;;;;;5.75;5.45;;;;;;;13.27;64.80;100425.84;6054236;23;20401;-70
2023/01/01 03:58:48;;;;;;;5.85;5.35;;;;;;;12.93;64.71;100372.78;6028297;23;20037;-71
2023/01/01 04:01:41;;;;;;;5.05;4.85;;;;;;;13.37;65.10;100465.63;6034302;23;20078;-70
2023/01/01 04:04:08;;;;;;;5.35;5.05;;;;;;;13.41;64.63;100472.38;6027341;23;20290;-69
2023/01/01 04:06:34;;;;;;;5.25;4.93;;;;;;;13.45;64.18;100455.41;6057219;23;20026;-70
2023/01/01 04:09:03;;;;;;;4.90;4.70;;;;;;;12.77;64.97;100341.38;6028427;23;20031;-73
2023/01/01 04:14:29;;;;;;;5.45;5.05;;;;;;;13.44;65.33;100455.50;6023305;23;20296;-73
2023/01/01 04:16:56;;;;;;;5.50;5.10;;;;;;;13.26;65.08;100445.22;6027391;23;20035;-73
2023/01/01 04:19:23;;;;;;;6.07;5.47;;;;;;;13.45;65.36;100468.59;6025621;23;20023;-71
2023/01/01 04:21:50;;;;;;;5.30;4.85;;;;;;;12.71;65.29;100338.31;6031392;23;20092;-70
2023/01/01 04:24:16;;;;;;;5.50;5.20;;;;;;;13.33;65.46;100454.44;6050043;23;20409;-70
2023/01/01 04:26:43;;;;;;;5.10;4.80;;;;;;;13.56;65.38;100487.16;6084904;23;20104;-71
2023/01/01 04:29:09;;;;;;;5.20;4.90;;;;;;;13.56;65.14;100489.78;6056613;23;20093;-71
2023/01/01 04:31:39;;;;;;;4.75;4.55;;;;;;;13.53;65.57;100479.47;6085390;23;20009;-70
2023/01/01 04:34:05;;;;;;;4.93;4.72;;;;;;;13.48;66.85;100484.19;6054821;23;20026;-70
2023/01/01 04:36:32;;;;;;;5.28;4.90;;;;;;;12.89;66.93;100416.09;6085653;23;20009;-69
2023/01/01 04:38:59;;;;;;;4.90;4.70;;;;;;;13.39;66.99;100500.66;6030248;23;20082;-70
2023/01/01 04:41:25;;;;;;;5.10;4.80;;;;;;;13.03;67.41;100461.72;6091760;23;20021;-69
2023/01/01 04:43:52;;;;;;;5.15;4.85;;;;;;;13.33;67.15;100512.44;6084109;23;20022;-70
2023/01/01 04:46:20;;;;;;;5.50;5.18;;;;;;;13.36;67.75;100521.91;6081277;23;20037;-70
2023/01/01 04:48:47;;;;;;;5.07;4.80;;;;;;;13.42;67.16;100536.50;6091702;23;20041;-68
2023/01/01 04:51:16;;;;;;;5.68;5.18;;;;;;;13.36;68.55;100521.91;6079621;23;20526;-69
2023/01/01 04:53:43;;;;;;;4.95;4.75;;;;;;;13.25;68.47;100529.66;6085589;23;20322;-71
2023/01/01 04:56:16;;;;;;;8.70;5.20;;;;;;;13.29;68.10;100536.41;6072718;23;20106;-73
2023/01/01 04:58:43;;;;;;;8.43;5.20;;;;;;;13.24;69.27;100530.63;6108916;23;20165;-72
2023/01/01 05:01:22;;;;;;;5.30;5.00;;;;;;;13.26;69.31;100539.25;6052143;23;20410;-74
2023/01/01 05:03:49;;;;;;;5.07;4.82;;;;;;;13.24;68.53;100543.78;6083211;23;20022;-73
2023/01/01 05:06:16;;;;;;;8.35;5.28;;;;;;;13.22;68.40;100537.78;6104710;23;20058;-73
2023/01/01 05:08:45;;;;;;;5.38;5.10;;;;;;;13.36;68.38;100564.09;6079268;23;20022;-72
2023/01/01 05:11:14;;;;;;;6.35;5.22;;;;;;;13.24;69.22;100552.53;6080747;23;20068;-73
2023/01/01 05:13:43;;;;;;;5.43;5.10;;;;;;;13.02;69.76;100532.00;6081855;23;20006;-73
2023/01/01 05:16:12;;;;;;;5.47;5.18;;;;;;;12.95;69.56;100528.94;6075371;23;20275;-70
2023/01/01 05:18:39;;;;;;;5.30;5.00;;;;;;;13.26;69.26;100603.34;6079145;23;20029;-71
2023/01/01 05:21:09;;;;;;;5.05;4.75;;;;;;;13.23;69.63;100582.47;6104376;23;20025;-69
2023/01/01 05:23:36;;;;;;;4.90;4.70;;;;;;;13.14;69.54;100562.00;6081542;23;20215;-72
2023/01/01 05:26:09;;;;;;;5.32;4.88;;;;;;;13.23;69.79;100584.25;6057293;23;20029;-70
2023/01/01 05:28:36;;;;;;;9.68;5.50;;;;;;;13.03;69.57;100561.81;6105326;23;20031;-70
2023/01/01 05:31:09;;;;;;;5.10;4.90;;;;;;;13.18;70.51;100595.94;6058651;23;20079;-70
2023/01/01 05:33:35;;;;;;;;;;;;;;;13.18;70.65;100598.56;6109996;23;20076;-70
2023/01/01 05:36:04;;;;;;;4.97;4.68;;;;;;;13.21;69.97;100591.41;6083715;23;20320;-70
2023/01/01 05:38:30;;;;;;;4.90;4.60;;;;;;;13.15;70.66;100593.50;6106761;23;20227;-70
2023/01/01 05:40:57;;;;;;;5.20;4.90;;;;;;;12.72;70.25;100538.31;6074160;23;20039;-71
2023/01/01 05:43:23;;;;;;;5.40;5.00;;;;;;;13.29;69.77;100631.28;6083483;23;20085;-70
2023/01/01 05:46:00;;;;;;;5.30;4.82;;;;;;;13.34;69.96;100643.25;6075492;23;20032;-69
2023/01/01 05:48:27;;;;;;;5.78;5.32;;;;;;;11.87;70.36;100419.06;6079909;23;20251;-70
2023/01/01 05:50:53;;;;;;;5.28;4.80;;;;;;;13.10;70.73;100616.66;6105914;23;20263;-69
2023/01/01 05:53:19;;;;;;;5.30;5.00;;;;;;;13.28;70.57;100645.44;6080440;23;20052;-69
2023/01/01 05:55:52;;;;;;;7.38;5.18;;;;;;;13.25;70.82;100657.03;6109150;23;20080;-69
2023/01/01 05:58:19;;;;;;;;;;;;;;;13.23;71.54;100652.75;6055730;23;20285;-71
2023/01/01 06:00:45;;;;;;;5.18;4.78;;;;;;;13.20;71.45;100680.16;6105002;23;19924;-70
2023/01/01 06:03:12;;;;;;;6.07;4.55;;;;;;;12.59;71.91;100597.97;6076185;23;20071;-69
2023/01/01 06:05:38;;;;;;;5.22;4.95;;;;;;;12.75;71.59;100617.13;6085752;23;20021;-70
2023/01/01 06:08:05;;;;;;;5.30;5.00;;;;;;;13.21;71.92;100702.09;6056355;23;20377;-70
2023/01/01 06:10:31;;;;;;;4.70;4.50;;;;;;;12.40;72.93;100558.75;6090009;23;20024;-70
2023/01/01 06:13:01;;;;;;;5.20;4.90;;;;;;;13.18;72.77;100689.97;6072305;23;20401;-70
2023/01/01 06:15:33;;;;;;;5.22;4.82;;;;;;;13.30;72.13;100691.84;6060028;23;20158;-70
2023/01/01 06:17:59;;;;;;;6.28;4.72;;;;;;;13.33;72.19;100681.13;6082530;23;20428;-71
2023/01/01 06:20:26;;;;;;;9.40;4.85;;;;;;;13.44;72.16;100703.31;6101519;23;20087;-69
2023/01/01 06:22:52;;;;;;;4.60;4.40;;;;;;;12.83;72.86;100598.22;6074421;23;20456;-71
2023/01/01 06:25:19;;;;;;;5.35;4.82;;;;;;;13.49;72.39;100706.47;6080700;23;20034;-70
2023/01/01 06:27:45;;;;;;;5.25;4.95;;;;;;;13.36;72.06;100682.72;6088282;23;20105;-70
2023/01/01 06:30:12;;;;;;;8.52;4.95;;;;;;;13.02;72.18;100640.03;6080750;23;20217;-70
2023/01/01 06:32:38;;;;;;;5.05;4.75;;;;;;;13.31;72.73;100697.97;6082377;23;20011;-70
2023/01/01 06:35:05;;;;;;;6.82;4.60;;;;;;;13.45;72.66;100733.97;6085064;23;20091;-73
2023/01/01 06:37:32;;;;;;;4.97;4.65;;;;;;;13.43;72.80;100736.75;6081730;23;20093;-73
2023/01/01 06:39:58;;;;;;;4.88;4.60;;;;;;;13.20;72.80;100709.16;6093891;23;20043;-75
2023/01/01 06:42:24;;;;;;;4.90;4.50;;;;;;;13.40;72.93;100744.00;6082659;23;20355;-71
2023/01/01 06:44:59;;;;;;;6.68;4.90;;;;;;;12.82;72.64;100664.16;6078776;23;20026;-74
2023/01/01 06:47:25;;;;;;;4.90;4.70;;;;;;;13.42;73.13;100742.94;6096905;23;20021;-74
2023/01/01 06:49:52;;;;;;;4.57;4.38;;;;;;;13.23;72.45;100708.09;6081539;23;20507;-74
2023/01/01 06:52:18;;;;;;;4.88;4.60;;;;;;;13.51;72.05;100758.19;6098218;23;20021;-75
2023/01/01 06:54:44;;;;;;;5.47;5.18;;;;;;;13.39;72.14;100751.06;6053391;23;20822;-72
2023/01/01 06:57:11;;;;;;;4.80;4.50;;;;;;;13.27;72.63;100754.41;6102440;23;20022;-74
2023/01/01 06:59:37;;;;;;;5.13;4.82;;;;;;;13.45;73.51;100787.59;6077575;23;20097;-74
2023/01/01 07:02:04;;;;;;;7.32;4.72;;;;;;;12.63;73.06;100641.59;6102123;23;20308;-73
2023/01/01 07:04:31;;;;;;;4.90;4.60;;;;;;;13.60;72.18;100785.75;6078010;23;20097;-73
2023/01/01 07:06:57;;;;;;;7.53;5.18;;;;;;;13.56;73.19;100781.63;6106995;23;20038;-73
2023/01/01 07:09:23;;;;;;;5.72;5.35;;;;;;;13.55;73.33;100801.88;6054038;23;20063;-74
2023/01/01 07:11:50;;;;;;;5.00;4.70;;;;;;;13.67;72.38;100825.75;6073600;23;20496;-73
2023/01/01 07:14:18;;;;;;;5.22;4.82;;;;;;;13.63;72.68;100814.59;6069846;23;20021;-74
2023/01/01 07:16:45;;;;;;;5.32;4.93;;;;;;;13.73;72.41;100820.97;6102942;23;20216;-73
2023/01/01 07:19:11;;;;;;;5.07;4.68;;;;;;;13.65;73.15;100822.38;6048655;23;20093;-74
2023/01/01 07:22:04;;;;;;;4.60;4.40;;;;;;;13.88;71.82;100840.22;6101782;23;20013;-73
2023/01/01 07:24:58;;;;;;;4.60;4.40;;;;;;;13.80;71.95;100831.97;6080129;23;20037;-70
2023/01/01 07:27:27;;;;;;;5.22;4.93;;;;;;;13.76;72.27;100843.66;6085186;23;20394;-70
2023/01/01 07:29:53;;;;;;;5.68;5.13;;;;;;;12.77;71.90;100682.88;6080418;23;20018;-74
2023/01/01 07:32:20;;;;;;;5.55;5.13;;;;;;;13.69;72.97;100866.94;6102332;23;20276;-70
2023/01/01 07:35:14;;;;;;;5.28;4.85;;;;;;;13.67;73.92;100884.66;6080685;23;20476;-70
2023/01/01 07:37:42;;;;;;;12.05;4.72;;;;;;;13.65;75.11;100896.22;6105259;23;20030;-69
2023/01/01 07:40:11;;;;;;;5.10;4.80;;;;;;;13.00;74.86;100797.34;6082486;23;20239;-70
2023/01/01 07:42:37;;;;;;;5.35;5.05;;;;;;;13.66;75.32;100908.47;6066123;23;20349;-70
2023/01/01 07:45:04;;;;;;;5.13;4.82;;;;;;;13.49;76.53;100893.69;6056500;23;20319;-69
2023/01/01 07:47:31;;;;;;;5.60;5.20;;;;;;;13.55;78.29;100928.44;6055221;23;20065;-70
2023/01/01 07:49:58;;;;;;;5.07;4.78;;;;;;;13.46;79.58;100954.53;6048045;23;20187;-67
2023/01/01 07:52:52;;;;;;;4.90;4.60;;;;;;;12.96;81.18;100882.75;6014740;23;20124;-71
2023/01/01 07:55:19;;;;;;;5.65;4.93;;;;;;;13.40;81.83;100953.09;6011574;23;20302;-68
2023/01/01 07:57:46;;;;;;;5.63;5.22;;;;;;;13.34;82.22;100946.38;6046108;23;20046;-68
2023/01/01 08:00:18;;;;;;;6.28;5.97;;;;;;;13.29;82.94;100952.84;6001094;23;20242;-67
2023/01/01 08:03:12;;;;;;;7.65;5.10;;;;;;;13.26;83.07;100958.31;6042937;23;20037;-71
2023/01/01 08:05:39;;;;;;;5.50;5.10;;;;;;;13.38;81.59;100962.88;6019299;23;20422;-71
2023/01/01 08:08:05;;;;;;;5.10;4.85;;;;;;;13.35;82.14;100963.91;6022996;23;20085;-71
2023/01/01 08:10:32;;;;;;;5.45;5.05;;;;;;;13.32;82.34;100955.34;6022548;23;20011;-71
2023/01/01 08:13:00;;;;;;;4.80;4.60;;;;;;;12.99;81.90;100903.69;6026438;23;20358;-68
2023/01/01 08:15:27;;;;;;;8.25;5.20;;;;;;;13.32;82.32;100973.78;6021181;23;20258;-68
2023/01/01 08:17:58;;;;;;;4.60;4.40;;;;;;;13.25;81.80;100962.75;6028655;23;20101;-68
2023/01/01 08:20:27;;;;;;;8.05;4.63;;;;;;;13.41;81.41;100977.66;6045777;23;20070;-67
2023/01/01 08:22:53;;;;;;;4.60;4.40;;;;;;;13.39;81.38;100974.25;6023854;23;20239;-72
2023/01/01 08:25:20;;;;;;;4.85;4.65;;;;;;;13.38;81.65;100973.44;6052203;23;20029;-71
2023/01/01 08:27:47;;;;;;;4.97;4.78;;;;;;;13.36;81.05;100977.94;6023340;23;20097;-71
2023/01/01 08:30:15;;;;;;;8.15;5.38;;;;;;;13.34;81.62;100966.63;6027092;23;20041;-72
2023/01/01 08:32:41;;;;;;;4.63;4.43;;;;;;;13.41;80.91;100975.03;6003985;23;20025;-70
2023/01/01 08:35:08;;;;;;;5.88;4.82;;;;;;;13.39;81.35;100963.72;6021290;23;20058;-71
2023/01/01 08:37:34;;;;;;;8.18;4.78;;;;;;;13.05;81.16;100919.13;6020694;23;20014;-68
2023/01/01 08:40:01;;;;;;;4.85;4.65;;;;;;;13.18;81.66;100954.31;6040826;23;20089;-68
2023/01/01 08:42:55;;;;;;;7.82;5.30;;;;;;;13.32;81.41;100986.97;6030797;23;20152;-68
2023/01/01 08:45:21;;;;;;;5.10;4.80;;;;;;;13.50;80.59;101006.13;6075162;23;20066;-68
2023/01/01 08:47:48;;;;;;;5.65;5.20;;;;;;;13.48;81.74;101013.28;6052575;23;20159;-68
2023/01/01 08:50:14;;;;;;;8.23;6.25;;;;;;;13.46;81.48;101042.38;6072461;23;20121;-67
2023/01/01 08:52:42;;;;;;;5.50;5.05;;;;;;;10.41;81.23;100531.75;6051045;23;20043;-68
2023/01/01 08:55:08;;;;;;;5.03;4.63;;;;;;;13.44;82.19;101036.34;6079814;23;20021;-69
2023/01/01 08:57:35;;;;;;;5.60;5.20;;;;;;;13.45;81.98;101053.88;6050391;23;20015;-68
2023/01/01 09:00:29;;;;;;;5.50;4.88;;;;;;;13.40;82.62;101055.91;6046115;23;20114;-68
2023/01/01 09:03:25;;;;;;;6.45;5.15;;;;;;;13.48;82.35;101080.03;6070329;23;20472;-68
2023/01/01 09:06:20;;;;;;;5.53;5.10;;;;;;;13.03;82.92;101018.47;6023759;23;20029;-68
2023/01/01 09:08:47;;;;;;;7.30;6.70;;;;;;;13.14;82.97;101037.13;6062553;23;20029;-68
2023/01/01 09:11:23;;;;;;;5.25;4.90;;;;;;;13.54;83.11;101086.75;6070254;23;20022;-73
2023/01/01 09:13:49;;;;;;;7.80;5.75;;;;;;;13.09;83.36;101019.88;6041966;23;20968;-71
2023/01/01 09:16:16;;;;;;;9.73;6.28;;;;;;;13.24;82.44;101053.28;6051661;23;20015;-72
2023/01/01 09:18:42;;;;;;;5.70;5.20;;;;;;;13.56;82.80;101103.31;6071937;23;20612;-68
2023/01/01 09:21:09;;;;;;;6.65;5.47;;;;;;;13.07;83.06;101019.13;6050485;23;20028;-69
2023/01/01 09:23:35;;;;;;;8.07;5.95;;;;;;;13.56;82.93;101117.34;6052843;23;20016;-68
2023/01/01 09:26:04;;;;;;;5.10;4.80;;;;;;;13.20;82.69;101051.75;6083059;23;20014;-69
2023/01/01 09:28:30;;;;;;;4.82;4.63;;;;;;;13.59;82.90;101133.94;6044055;23;20477;-68
2023/01/01 09:30:57;;;;;;;5.57;5.18;;;;;;;13.54;83.29;101121.03;6052382;23;20574;-67
2023/01/01 09:33:23;;;;;;;5.72;5.22;;;;;;;13.59;83.01;101139.22;6078409;23;20018;-68
2023/01/01 09:35:52;;;;;;;5.28;4.97;;;;;;;13.54;82.95;101119.22;6051743;23;20097;-68
2023/01/01 09:38:18;;;;;;;9.18;5.40;;;;;;;13.66;82.60;101130.00;6081021;23;20108;-67
2023/01/01 09:41:17;;;;;;;6.28;4.60;;;;;;;13.70;82.33;101132.38;6047038;23;20089;-68
2023/01/01 09:43:59;;;;;;;4.90;4.60;;;;;;;13.72;82.61;101141.03;6024579;23;20325;-67
2023/01/01 09:46:25;;;;;;;4.68;4.45;;;;;;;13.52;82.72;101102.66;6049008;23;20508;-69
2023/01/01 09:49:02;;;;;;;4.95;4.65;;;;;;;13.62;82.26;101116.16;6055823;23;20117;-68
2023/01/01 09:51:34;;;;;;;4.82;4.55;;;;;;;13.84;81.79;101144.75;6075778;23;20090;-67
2023/01/01 09:54:15;;;;;;;5.28;4.78;;;;;;;13.92;81.91;101146.94;6053036;23;20031;-68
2023/01/01 09:56:44;;;;;;;5.38;4.95;;;;;;;13.91;81.19;101140.84;6054029;23;20034;-67
2023/01/01 09:59:10;;;;;;;7.93;4.90;;;;;;;13.99;81.37;101148.28;6046895;23;20025;-70
2023/01/01 10:01:58;;;;;;;5.40;5.10;;;;;;;13.97;81.38;101150.16;6074433;23;20033;-70
2023/01/01 10:04:31;;;;;;;9.98;4.75;;;;;;;13.99;80.71;101143.00;6049850;23;20086;-70
2023/01/01 10:07:16;;;;;;;4.75;4.55;;;;;;;13.95;81.44;101147.63;6053417;23;20039;-70
2023/01/01 10:10:21;;;;;;;5.25;4.90;;;;;;;13.91;81.40;101158.44;6050192;23;20006;-69
2023/01/01 10:13:10;;;;;;;5.05;4.75;;;;;;;13.64;81.11;101111.63;6047895;23;20150;-72
2023/01/01 10:15:42;;;;;;;5.00;4.70;;;;;;;13.92;81.47;101160.16;6071212;23;20033;-72
2023/01/01 10:18:22;;;;;;;9.15;4.82;;;;;;;13.77;81.63;101138.13;6077826;23;20056;-73
2023/01/01 10:21:37;;;;;;;5.25;4.95;;;;;;;13.96;80.68;101169.56;6046127;23;20425;-72
2023/01/01 10:25:17;;;;;;;5.13;4.72;;;;;;;13.98;81.09;101149.22;6009911;23;20205;-72
2023/01/01 10:27:59;;;;;;;5.07;4.72;;;;;;;13.97;80.73;101131.69;6026017;23;20096;-72
2023/01/01 10:30:27;;;;;;;5.30;5.00;;;;;;;13.62;81.44;101071.31;6074784;23;20014;-69
2023/01/01 10:32:55;;;;;;;5.82;5.30;;;;;;;13.92;81.05;101126.69;6049294;23;20216;-69
2023/01/01 10:35:32;;;;;;;5.60;4.60;;;;;;;13.62;81.42;101081.88;6079855;23;20046;-69
2023/01/01 10:38:01;;;;;;;8.35;5.00;;;;;;;13.95;80.59;101134.44;6049579;23;20025;-69
2023/01/01 10:40:28;;;;;;;4.88;4.57;;;;;;;13.60;81.71;101081.09;6075301;23;20031;-68
2023/01/01 10:42:59;;;;;;;5.38;4.90;;;;;;;13.89;81.86;101129.53;6033797;23;20050;-68
2023/01/01 10:45:37;;;;;;;5.18;4.70;;;;;;;13.64;81.19;101093.19;6022785;23;20018;-68
2023/01/01 10:48:21;;;;;;;5.07;4.78;;;;;;;13.86;81.28;101132.31;6037514;23;20106;-69
2023/01/01 10:51:00;;;;;;;4.82;4.63;;;;;;;13.90;81.23;101136.47;6078894;23;20026;-69
2023/01/01 10:53:31;;;;;;;4.68;4.47;;;;;;;13.89;81.08;101126.88;6045190;23;20441;-68
2023/01/01 10:56:07;;;;;;;4.72;4.53;;;;;;;13.91;81.47;101138.19;6080089;23;20297;-69
2023/01/01 10:58:46;;;;;;;6.00;5.07;;;;;;;13.92;81.16;101137.25;6053059;23;20019;-67
2023/01/01 11:01:21;;;;;;;5.88;5.47;;;;;;;13.31;81.53;101052.03;6077517;23;20072;-66
2023/01/01 11:03:55;;;;;;;5.20;4.90;;;;;;;13.86;82.05;101127.06;6055755;23;20085;-66
2023/01/01 11:06:23;;;;;;;5.15;4.85;;;;;;;13.95;81.81;101145.00;6073324;23;20382;-67
2023/01/01 11:08:56;;;;;;;5.22;4.85;;;;;;;13.87;81.79;101122.63;6023489;23;20261;-68
2023/01/01 11:11:27;;;;;;;;;;;;;;;14.00;81.04;101154.41;6080240;23;20106;-66
2023/01/01 11:13:57;;;;;;;5.13;4.70;;;;;;;13.98;81.09;101157.16;6056283;23;19922;-67
2023/01/01 11:16:25;;;;;;;4.57;4.38;;;;;;;13.80;80.38;101123.94;6055201;23;20023;-67
2023/01/01 11:19:03;;;;;;;5.45;5.05;;;;;;;13.98;80.87;101158.94;6076597;23;20251;-66
2023/01/01 11:21:30;;;;;;;8.55;4.93;;;;;;;12.89;81.10;100994.69;6068628;23;20038;-66
2023/01/01 11:24:16;;;;;;;5.22;4.97;;;;;;;13.67;80.72;101114.09;6057667;23;20036;-67
2023/01/01 11:26:42;;;;;;;5.53;5.03;;;;;;;14.04;80.20;101171.78;6055502;23;20022;-67
2023/01/01 11:29:14;;;;;;;5.72;5.22;;;;;;;13.96;80.85;101164.31;6053044;23;20023;-67
2023/01/01 11:31:44;;;;;;;5.15;4.85;;;;;;;13.96;81.29;101170.41;6081182;23;20021;-67
2023/01/01 11:34:30;;;;;;;5.45;5.05;;;;;;;13.32;81.87;101085.34;6068861;23;20221;-67
2023/01/01 11:37:25;;;;;;;7.60;5.43;;;;;;;13.94;81.37;101185.50;6051832;23;20460;-67
2023/01/01 11:39:54;;;;;;;5.20;4.80;;;;;;;13.76;81.77;101168.94;6066847;23;20457;-68
2023/01/01 11:42:24;;;;;;;5.10;4.70;;;;;;;13.76;81.13;101147.84;6057451;23;20685;-67
2023/01/01 11:44:54;;;;;;;5.93;5.13;;;;;;;14.00;80.56;101186.09;6063561;23;20256;-68
2023/01/01 11:47:28;;;;;;;4.95;4.60;;;;;;;14.10;80.10;101185.44;6082507;23;20391;-67
2023/01/01 11:50:12;;;;;;;5.13;4.82;;;;;;;14.13;80.17;101184.41;6057200;23;20038;-68
2023/01/01 11:52:43;;;;;;;5.53;5.22;;;;;;;14.15;80.68;101187.78;6075915;23;20014;-68
2023/01/01 11:55:25;;;;;;;8.38;5.25;;;;;;;14.19;79.78;101184.03;6082225;23;20018;-68
2023/01/01 11:58:03;;;;;;;7.80;4.95;;;;;;;14.27;80.08;101187.09;6059002;23;20089;-69